sensor_id;sensor_type;location;lat;lon;timestamp;pressure;altitude;pressure_sealevel;temperature;humidity
6024;BME280;3040;42.654;23.296;2024-03-17T00:01:09;94461.31;;;10.68;72.87
6024;BME280;3040;42.654;23.296;2024-03-17T00:03:35;94467.41;;;10.69;73.28
6024;BME280;3040;42.654;23.296;2024-03-17T00:06:04;94387.03;;;10.27;73.44
6024;BME280;3040;42.654;23.296;2024-03-17T00:08:29;94466.84;;;10.75;72.94
6024;BME280;3040;42.654;23.296;2024-03-17T00:10:56;94463.53;;;10.78;73.70
6024;BME280;3040;42.654;23.296;2024-03-17T00:13:23;94467.19;;;10.86;73.00
6024;BME280;3040;42.654;23.296;2024-03-17T00:15:50;94457.09;;;10.91;72.62
6024;BME280;3040;42.654;23.296;2024-03-17T00:18:16;94313.25;;;9.99;72.32
6024;BME280;3040;42.654;23.296;2024-03-17T00:20:43;94460.22;;;10.93;71.41
6024;BME280;3040;42.654;23.296;2024-03-17T00:23:10;94434.47;;;10.73;71.86
6024;BME280;3040;42.654;23.296;2024-03-17T00:25:38;94466.22;;;10.90;71.66
6024;BME280;3040;42.654;23.296;2024-03-17T00:28:04;94465.31;;;10.86;72.34
6024;BME280;3040;42.654;23.296;2024-03-17T00:30:31;94457.88;;;10.68;73.12
6024;BME280;3040;42.654;23.296;2024-03-17T00:32:56;94401.00;;;10.24;72.85
6024;BME280;3040;42.654;23.296;2024-03-17T00:35:25;94449.34;;;10.62;73.89
6024;BME280;3040;42.654;23.296;2024-03-17T00:37:52;94450.78;;;10.59;74.32
6024;BME280;3040;42.654;23.296;2024-03-17T00:40:20;94447.78;;;10.61;74.05
6024;BME280;3040;42.654;23.296;2024-03-17T00:42:47;94445.13;;;10.61;73.56
6024;BME280;3040;42.654;23.296;2024-03-17T00:45:13;94440.56;;;10.61;73.27
6024;BME280;3040;42.654;23.296;2024-03-17T00:47:40;94452.00;;;10.62;72.87
6024;BME280;3040;42.654;23.296;2024-03-17T00:50:06;94418.72;;;10.32;72.10
6024;BME280;3040;42.654;23.296;2024-03-17T00:52:34;94447.34;;;10.47;71.90
6024;BME280;3040;42.654;23.296;2024-03-17T00:54:59;94457.06;;;10.43;71.97
6024;BME280;3040;42.654;23.296;2024-03-17T00:57:28;94447.56;;;10.42;72.61
6024;BME280;3040;42.654;23.296;2024-03-17T00:59:53;94284.31;;;9.28;72.63
6024;BME280;3040;42.654;23.296;2024-03-17T01:02:20;94463.59;;;10.33;73.24
6024;BME280;3040;42.654;23.296;2024-03-17T01:04:47;94451.28;;;10.29;73.42
6024;BME280;3040;42.654;23.296;2024-03-17T01:07:14;94457.28;;;10.05;75.16
6024;BME280;3040;42.654;23.296;2024-03-17T01:09:39;94453.72;;;10.01;75.43
6024;BME280;3040;42.654;23.296;2024-03-17T01:12:06;94444.25;;;9.79;76.75
6024;BME280;3040;42.654;23.296;2024-03-17T01:14:33;94274.22;;;8.68;76.13
6024;BME280;3040;42.654;23.296;2024-03-17T01:17:00;94454.97;;;9.82;76.77
6024;BME280;3040;42.654;23.296;2024-03-17T01:19:26;94459.75;;;9.89;76.29
6024;BME280;3040;42.654;23.296;2024-03-17T01:21:53;94446.84;;;9.88;76.21
6024;BME280;3040;42.654;23.296;2024-03-17T01:24:19;94460.94;;;10.00;75.57
6024;BME280;3040;42.654;23.296;2024-03-17T01:26:45;94455.28;;;10.02;75.20
6024;BME280;3040;42.654;23.296;2024-03-17T01:29:11;94439.69;;;10.00;74.74
6024;BME280;3040;42.654;23.296;2024-03-17T01:31:40;94462.03;;;9.99;74.92
6024;BME280;3040;42.654;23.296;2024-03-17T01:34:05;94461.81;;;10.04;74.28
6024;BME280;3040;42.654;23.296;2024-03-17T01:36:32;94458.06;;;10.05;73.78
6024;BME280;3040;42.654;23.296;2024-03-17T01:38:59;94450.44;;;9.83;75.52
6024;BME280;3040;42.654;23.296;2024-03-17T01:41:27;94454.28;;;9.94;74.67
6024;BME280;3040;42.654;23.296;2024-03-17T01:43:53;94413.69;;;9.73;75.17
6024;BME280;3040;42.654;23.296;2024-03-17T01:46:20;94446.31;;;9.73;75.55
6024;BME280;3040;42.654;23.296;2024-03-17T01:48:47;94451.09;;;9.80;75.63
6024;BME280;3040;42.654;23.296;2024-03-17T01:51:15;94449.81;;;9.86;76.24
6024;BME280;3040;42.654;23.296;2024-03-17T01:53:42;94446.84;;;9.88;74.43
6024;BME280;3040;42.654;23.296;2024-03-17T01:56:10;94455.59;;;9.88;74.52
6024;BME280;3040;42.654;23.296;2024-03-17T01:58:36;94442.47;;;9.83;74.62
6024;BME280;3040;42.654;23.296;2024-03-17T02:01:03;94442.03;;;9.81;73.69
6024;BME280;3040;42.654;23.296;2024-03-17T02:03:29;94449.56;;;9.79;73.92
6024;BME280;3040;42.654;23.296;2024-03-17T02:05:58;94453.31;;;9.78;74.58
6024;BME280;3040;42.654;23.296;2024-03-17T02:08:24;94379.84;;;9.28;74.62
6024;BME280;3040;42.654;23.296;2024-03-17T02:10:52;94452.56;;;9.57;75.35
6024;BME280;3040;42.654;23.296;2024-03-17T02:13:18;94449.44;;;9.55;75.19
6024;BME280;3040;42.654;23.296;2024-03-17T02:15:46;94449.84;;;9.45;75.59
6024;BME280;3040;42.654;23.296;2024-03-17T02:18:12;94457.47;;;9.25;76.97
6024;BME280;3040;42.654;23.296;2024-03-17T02:20:39;94455.72;;;9.29;76.53
6024;BME280;3040;42.654;23.296;2024-03-17T02:23:26;94453.25;;;9.04;78.28
6024;BME280;3040;42.654;23.296;2024-03-17T02:25:53;94457.97;;;8.98;78.42
6024;BME280;3040;42.654;23.296;2024-03-17T02:28:19;94458.47;;;8.91;78.83
6024;BME280;3040;42.654;23.296;2024-03-17T02:30:46;94451.19;;;8.80;79.41
6024;BME280;3040;42.654;23.296;2024-03-17T02:33:12;94443.16;;;8.68;80.19
6024;BME280;3040;42.654;23.296;2024-03-17T02:35:39;94453.56;;;8.73;80.77
6024;BME280;3040;42.654;23.296;2024-03-17T02:38:05;94442.72;;;8.86;80.41
6024;BME280;3040;42.654;23.296;2024-03-17T02:40:34;94445.78;;;8.97;79.95
6024;BME280;3040;42.654;23.296;2024-03-17T02:43:00;94445.53;;;8.90;79.57
6024;BME280;3040;42.654;23.296;2024-03-17T02:45:26;94442.94;;;9.02;79.10
6024;BME280;3040;42.654;23.296;2024-03-17T02:47:53;94451.00;;;8.85;79.22
6024;BME280;3040;42.654;23.296;2024-03-17T02:50:20;94400.53;;;8.43;80.11
6024;BME280;3040;42.654;23.296;2024-03-17T02:52:47;94398.94;;;8.51;80.39
6024;BME280;3040;42.654;23.296;2024-03-17T02:55:14;94447.81;;;8.71;80.89
6024;BME280;3040;42.654;23.296;2024-03-17T02:57:44;94394.22;;;8.56;79.97
6024;BME280;3040;42.654;23.296;2024-03-17T03:00:11;94439.72;;;8.96;79.48
6024;BME280;3040;42.654;23.296;2024-03-17T03:02:38;94434.53;;;9.00;79.78
6024;BME280;3040;42.654;23.296;2024-03-17T03:05:06;94445.72;;;9.06;79.58
6024;BME280;3040;42.654;23.296;2024-03-17T03:07:33;94432.84;;;9.16;78.28
6024;BME280;3040;42.654;23.296;2024-03-17T03:09:59;94420.06;;;9.18;77.45
6024;BME280;3040;42.654;23.296;2024-03-17T03:12:26;94432.50;;;9.26;76.21
6024;BME280;3040;42.654;23.296;2024-03-17T03:14:54;94420.50;;;9.20;76.27
6024;BME280;3040;42.654;23.296;2024-03-17T03:17:21;94432.50;;;9.26;75.65
6024;BME280;3040;42.654;23.296;2024-03-17T03:19:49;94435.69;;;9.11;76.17
6024;BME280;3040;42.654;23.296;2024-03-17T03:22:16;94439.00;;;9.08;77.14
6024;BME280;3040;42.654;23.296;2024-03-17T03:24:43;94423.91;;;9.00;76.75
6024;BME280;3040;42.654;23.296;2024-03-17T03:27:09;94422.63;;;9.06;76.71
6024;BME280;3040;42.654;23.296;2024-03-17T03:29:36;94436.47;;;9.12;76.94
6024;BME280;3040;42.654;23.296;2024-03-17T03:32:05;94430.50;;;8.94;77.39
6024;BME280;3040;42.654;23.296;2024-03-17T03:34:33;94420.00;;;8.77;77.76
6024;BME280;3040;42.654;23.296;2024-03-17T03:36:59;94435.41;;;8.83;77.65
6024;BME280;3040;42.654;23.296;2024-03-17T03:39:26;94439.91;;;8.91;76.75
6024;BME280;3040;42.654;23.296;2024-03-17T03:41:57;94443.16;;;8.97;75.42
6024;BME280;3040;42.654;23.296;2024-03-17T03:44:23;94337.28;;;8.33;75.97
6024;BME280;3040;42.654;23.296;2024-03-17T03:46:50;94446.50;;;9.06;76.02
6024;BME280;3040;42.654;23.296;2024-03-17T03:49:19;94325.75;;;8.29;75.71
6024;BME280;3040;42.654;23.296;2024-03-17T03:51:46;94453.19;;;9.12;75.34
6024;BME280;3040;42.654;23.296;2024-03-17T03:54:13;94441.63;;;8.87;76.54
6024;BME280;3040;42.654;23.296;2024-03-17T03:56:40;94458.00;;;8.89;77.53
6024;BME280;3040;42.654;23.296;2024-03-17T03:59:06;94461.91;;;8.92;77.63
6024;BME280;3040;42.654;23.296;2024-03-17T04:01:33;94467.31;;;8.95;77.65
6024;BME280;3040;42.654;23.296;2024-03-17T04:04:00;94468.38;;;8.74;77.54
6024;BME280;3040;42.654;23.296;2024-03-17T04:06:30;94459.19;;;8.16;80.46
6024;BME280;3040;42.654;23.296;2024-03-17T04:08:56;94460.25;;;8.32;80.04
6024;BME280;3040;42.654;23.296;2024-03-17T04:11:23;94465.06;;;8.39;80.24
6024;BME280;3040;42.654;23.296;2024-03-17T04:13:51;94466.44;;;8.53;79.70
6024;BME280;3040;42.654;23.296;2024-03-17T04:16:18;94464.69;;;8.57;79.62
6024;BME280;3040;42.654;23.296;2024-03-17T04:18:44;94468.34;;;8.27;80.49
6024;BME280;3040;42.654;23.296;2024-03-17T04:21:11;94475.50;;;8.44;79.47
6024;BME280;3040;42.654;23.296;2024-03-17T04:23:39;94352.16;;;7.70;78.68
6024;BME280;3040;42.654;23.296;2024-03-17T04:26:06;94479.81;;;8.66;78.61
6024;BME280;3040;42.654;23.296;2024-03-17T04:28:34;94447.13;;;7.81;81.21
6024;BME280;3040;42.654;23.296;2024-03-17T04:31:05;94481.53;;;7.29;85.35
6024;BME280;3040;42.654;23.296;2024-03-17T04:33:32;94482.78;;;7.31;87.23
6024;BME280;3040;42.654;23.296;2024-03-17T04:35:59;94465.19;;;7.27;86.40
6024;BME280;3040;42.654;23.296;2024-03-17T04:38:27;94458.06;;;7.53;85.39
6024;BME280;3040;42.654;23.296;2024-03-17T04:40:55;94496.78;;;7.84;84.51
6024;BME280;3040;42.654;23.296;2024-03-17T04:43:30;94496.47;;;7.85;84.38
6024;BME280;3040;42.654;23.296;2024-03-17T04:46:01;94440.94;;;7.59;83.65
6024;BME280;3040;42.654;23.296;2024-03-17T04:48:29;94502.34;;;8.08;82.92
6024;BME280;3040;42.654;23.296;2024-03-17T04:50:57;94508.31;;;8.13;81.97
6024;BME280;3040;42.654;23.296;2024-03-17T04:53:24;94505.91;;;8.29;81.91
6024;BME280;3040;42.654;23.296;2024-03-17T04:56:00;94510.13;;;8.39;81.29
6024;BME280;3040;42.654;23.296;2024-03-17T04:58:27;94493.00;;;8.19;81.15
6024;BME280;3040;42.654;23.296;2024-03-17T05:00:54;94505.47;;;8.18;81.29
6024;BME280;3040;42.654;23.296;2024-03-17T05:03:20;94502.69;;;7.72;82.55
6024;BME280;3040;42.654;23.296;2024-03-17T05:05:47;94516.72;;;7.90;83.29
6024;BME280;3040;42.654;23.296;2024-03-17T05:08:14;94482.00;;;7.83;82.99
6024;BME280;3040;42.654;23.296;2024-03-17T05:10:41;94522.94;;;8.37;82.35
6024;BME280;3040;42.654;23.296;2024-03-17T05:13:09;94529.88;;;8.58;81.90
6024;BME280;3040;42.654;23.296;2024-03-17T05:15:37;94535.44;;;8.74;80.17
6024;BME280;3040;42.654;23.296;2024-03-17T05:18:04;94526.97;;;8.81;79.52
6024;BME280;3040;42.654;23.296;2024-03-17T05:20:31;94544.38;;;8.99;78.41
6024;BME280;3040;42.654;23.296;2024-03-17T05:22:58;94541.50;;;9.13;77.77
6024;BME280;3040;42.654;23.296;2024-03-17T05:25:24;94542.84;;;9.27;78.31
6024;BME280;3040;42.654;23.296;2024-03-17T05:27:51;94543.94;;;9.26;78.08
6024;BME280;3040;42.654;23.296;2024-03-17T05:30:19;94528.94;;;9.30;78.68
6024;BME280;3040;42.654;23.296;2024-03-17T05:32:46;94555.00;;;9.58;78.24
6024;BME280;3040;42.654;23.296;2024-03-17T05:35:13;94544.97;;;9.63;77.92
6024;BME280;3040;42.654;23.296;2024-03-17T05:37:39;94535.84;;;9.73;77.28
6024;BME280;3040;42.654;23.296;2024-03-17T05:40:10;94543.88;;;9.85;77.73
6024;BME280;3040;42.654;23.296;2024-03-17T05:42:37;94531.44;;;9.98;77.28
6024;BME280;3040;42.654;23.296;2024-03-17T05:45:05;94538.28;;;10.19;76.70
6024;BME280;3040;42.654;23.296;2024-03-17T05:47:37;94541.78;;;10.32;77.04
6024;BME280;3040;42.654;23.296;2024-03-17T05:50:04;94542.13;;;10.43;76.72
6024;BME280;3040;42.654;23.296;2024-03-17T05:52:31;94542.84;;;10.52;76.81
6024;BME280;3040;42.654;23.296;2024-03-17T05:54:58;94541.31;;;10.63;76.24
6024;BME280;3040;42.654;23.296;2024-03-17T05:57:25;94412.88;;;9.93;76.13
6024;BME280;3040;42.654;23.296;2024-03-17T05:59:53;94538.25;;;10.85;75.57
6024;BME280;3040;42.654;23.296;2024-03-17T06:02:20;94549.13;;;10.92;75.11
6024;BME280;3040;42.654;23.296;2024-03-17T06:04:48;94543.38;;;11.02;74.53
6024;BME280;3040;42.654;23.296;2024-03-17T06:07:15;94545.81;;;11.08;72.35
6024;BME280;3040;42.654;23.296;2024-03-17T06:09:42;94550.47;;;11.11;71.91
6024;BME280;3040;42.654;23.296;2024-03-17T06:12:12;94542.81;;;11.09;72.13
6024;BME280;3040;42.654;23.296;2024-03-17T06:14:39;94553.81;;;11.32;71.63
6024;BME280;3040;42.654;23.296;2024-03-17T06:17:06;94556.91;;;11.46;71.76
6024;BME280;3040;42.654;23.296;2024-03-17T06:19:33;94558.91;;;11.61;71.26
6024;BME280;3040;42.654;23.296;2024-03-17T06:22:01;94565.88;;;11.66;70.13
6024;BME280;3040;42.654;23.296;2024-03-17T06:24:30;94438.47;;;11.03;70.20
6024;BME280;3040;42.654;23.296;2024-03-17T06:26:57;94562.88;;;11.92;68.89
6024;BME280;3040;42.654;23.296;2024-03-17T06:29:24;94572.41;;;12.05;68.57
6024;BME280;3040;42.654;23.296;2024-03-17T06:31:51;94572.13;;;12.22;69.52
6024;BME280;3040;42.654;23.296;2024-03-17T06:34:17;94572.31;;;12.29;68.12
6024;BME280;3040;42.654;23.296;2024-03-17T06:36:44;94577.81;;;12.36;67.14
6024;BME280;3040;42.654;23.296;2024-03-17T06:39:13;94578.47;;;12.45;66.43
6024;BME280;3040;42.654;23.296;2024-03-17T06:41:41;94590.16;;;12.41;66.31
6024;BME280;3040;42.654;23.296;2024-03-17T06:44:08;94550.09;;;12.25;66.78
6024;BME280;3040;42.654;23.296;2024-03-17T06:46:35;94584.03;;;12.68;66.40
6024;BME280;3040;42.654;23.296;2024-03-17T06:49:01;94584.38;;;12.67;65.03
6024;BME280;3040;42.654;23.296;2024-03-17T06:51:28;94589.38;;;12.40;64.07
6024;BME280;3040;42.654;23.296;2024-03-17T06:53:55;94586.69;;;12.52;65.35
6024;BME280;3040;42.654;23.296;2024-03-17T06:56:23;94588.13;;;12.78;65.52
6024;BME280;3040;42.654;23.296;2024-03-17T06:58:50;94589.34;;;12.96;65.55
6024;BME280;3040;42.654;23.296;2024-03-17T07:01:17;94560.81;;;12.84;62.50
6024;BME280;3040;42.654;23.296;2024-03-17T07:03:44;94583.78;;;13.17;63.07
6024;BME280;3040;42.654;23.296;2024-03-17T07:06:11;94583.94;;;13.39;62.18
6024;BME280;3040;42.654;23.296;2024-03-17T07:08:38;94581.28;;;13.39;61.39
6024;BME280;3040;42.654;23.296;2024-03-17T07:11:06;94583.69;;;13.44;61.39
6024;BME280;3040;42.654;23.296;2024-03-17T07:13:35;94583.00;;;13.48;60.83
6024;BME280;3040;42.654;23.296;2024-03-17T07:16:04;94580.84;;;13.53;59.69
6024;BME280;3040;42.654;23.296;2024-03-17T07:18:33;94580.78;;;13.50;59.33
6024;BME280;3040;42.654;23.296;2024-03-17T07:21:00;94571.13;;;13.29;60.97
6024;BME280;3040;42.654;23.296;2024-03-17T07:23:28;94587.22;;;13.49;60.67
6024;BME280;3040;42.654;23.296;2024-03-17T07:25:55;94583.25;;;13.58;61.84
6024;BME280;3040;42.654;23.296;2024-03-17T07:28:23;94585.03;;;13.70;61.19
6024;BME280;3040;42.654;23.296;2024-03-17T07:31:43;94589.75;;;14.11;59.78
6024;BME280;3040;42.654;23.296;2024-03-17T07:34:10;94591.78;;;14.34;59.66
6024;BME280;3040;42.654;23.296;2024-03-17T07:36:37;94586.16;;;14.39;58.57
6024;BME280;3040;42.654;23.296;2024-03-17T07:39:04;94592.16;;;14.51;57.14
6024;BME280;3040;42.654;23.296;2024-03-17T07:41:32;94587.88;;;14.31;57.92
6024;BME280;3040;42.654;23.296;2024-03-17T07:43:59;94589.34;;;14.28;57.74
6024;BME280;3040;42.654;23.296;2024-03-17T07:46:26;94587.34;;;14.41;57.63
6024;BME280;3040;42.654;23.296;2024-03-17T07:48:54;94595.63;;;14.36;58.67
6024;BME280;3040;42.654;23.296;2024-03-17T07:51:21;94564.28;;;14.17;57.25
6024;BME280;3040;42.654;23.296;2024-03-17T07:53:48;94588.38;;;14.37;58.10
6024;BME280;3040;42.654;23.296;2024-03-17T07:56:17;94596.41;;;14.37;57.46
6024;BME280;3040;42.654;23.296;2024-03-17T07:58:45;94571.06;;;14.31;58.01
6024;BME280;3040;42.654;23.296;2024-03-17T08:01:14;94594.34;;;14.46;57.33
6024;BME280;3040;42.654;23.296;2024-03-17T08:03:42;94588.84;;;14.39;59.56
6024;BME280;3040;42.654;23.296;2024-03-17T08:06:12;94463.19;;;13.69;58.65
6024;BME280;3040;42.654;23.296;2024-03-17T08:08:39;94529.09;;;14.15;60.27
6024;BME280;3040;42.654;23.296;2024-03-17T08:11:06;94493.34;;;14.04;57.43
6024;BME280;3040;42.654;23.296;2024-03-17T08:13:33;94581.97;;;14.80;60.42
6024;BME280;3040;42.654;23.296;2024-03-17T08:16:01;94589.91;;;14.95;57.71
6024;BME280;3040;42.654;23.296;2024-03-17T08:18:28;94504.53;;;14.48;56.33
6024;BME280;3040;42.654;23.296;2024-03-17T08:20:55;94602.13;;;15.16;56.55
6024;BME280;3040;42.654;23.296;2024-03-17T08:23:23;94583.44;;;15.19;61.67
6024;BME280;3040;42.654;23.296;2024-03-17T08:25:53;94578.16;;;15.23;57.98
6024;BME280;3040;42.654;23.296;2024-03-17T08:28:21;94580.53;;;15.28;56.29
6024;BME280;3040;42.654;23.296;2024-03-17T08:30:52;94595.16;;;15.34;55.15
6024;BME280;3040;42.654;23.296;2024-03-17T08:33:20;94588.06;;;15.45;56.10
6024;BME280;3040;42.654;23.296;2024-03-17T08:35:52;94545.44;;;15.36;54.86
6024;BME280;3040;42.654;23.296;2024-03-17T08:38:20;94590.34;;;15.66;54.77
6024;BME280;3040;42.654;23.296;2024-03-17T08:40:50;94579.47;;;15.81;57.21
6024;BME280;3040;42.654;23.296;2024-03-17T08:43:17;94567.19;;;16.07;60.02
6024;BME280;3040;42.654;23.296;2024-03-17T08:45:43;94576.72;;;16.34;60.05
6024;BME280;3040;42.654;23.296;2024-03-17T08:48:10;94578.88;;;16.51;55.53
6024;BME280;3040;42.654;23.296;2024-03-17T08:50:37;94578.66;;;16.63;53.80
6024;BME280;3040;42.654;23.296;2024-03-17T08:53:05;94552.97;;;16.66;52.52
6024;BME280;3040;42.654;23.296;2024-03-17T08:55:32;94577.47;;;16.98;51.16
6024;BME280;3040;42.654;23.296;2024-03-17T08:58:00;94442.50;;;16.34;51.56
6024;BME280;3040;42.654;23.296;2024-03-17T09:00:27;94557.63;;;17.09;49.44
6024;BME280;3040;42.654;23.296;2024-03-17T09:02:55;94554.44;;;15.47;54.00
6024;BME280;3040;42.654;23.296;2024-03-17T09:05:22;94540.38;;;14.63;56.94
6024;BME280;3040;42.654;23.296;2024-03-17T09:07:49;94536.97;;;14.08;59.67
6024;BME280;3040;42.654;23.296;2024-03-17T09:10:16;94541.06;;;14.21;58.56
6024;BME280;3040;42.654;23.296;2024-03-17T09:12:42;94549.78;;;13.64;60.72
6024;BME280;3040;42.654;23.296;2024-03-17T09:15:11;94539.28;;;14.29;60.68
6024;BME280;3040;42.654;23.296;2024-03-17T09:17:38;94542.38;;;15.12;56.84
6024;BME280;3040;42.654;23.296;2024-03-17T09:20:06;94546.75;;;15.99;55.36
6024;BME280;3040;42.654;23.296;2024-03-17T09:22:36;94528.19;;;16.80;51.51
6024;BME280;3040;42.654;23.296;2024-03-17T09:25:05;94531.03;;;17.45;50.88
6024;BME280;3040;42.654;23.296;2024-03-17T09:27:32;94525.97;;;17.91;47.76
6024;BME280;3040;42.654;23.296;2024-03-17T09:29:59;94523.75;;;18.04;46.75
6024;BME280;3040;42.654;23.296;2024-03-17T09:32:27;94526.75;;;17.92;44.44
6024;BME280;3040;42.654;23.296;2024-03-17T09:34:54;94514.72;;;18.44;45.64
6024;BME280;3040;42.654;23.296;2024-03-17T09:37:20;94517.56;;;19.11;42.37
6024;BME280;3040;42.654;23.296;2024-03-17T09:39:47;94502.53;;;19.67;42.20
6024;BME280;3040;42.654;23.296;2024-03-17T09:42:17;94506.34;;;19.98;40.95
6024;BME280;3040;42.654;23.296;2024-03-17T09:44:45;94383.03;;;18.00;40.73
6024;BME280;3040;42.654;23.296;2024-03-17T09:47:18;94469.84;;;17.86;43.25
6024;BME280;3040;42.654;23.296;2024-03-17T09:49:47;94500.78;;;18.27;40.62
6024;BME280;3040;42.654;23.296;2024-03-17T09:52:19;94496.09;;;18.07;40.15
6024;BME280;3040;42.654;23.296;2024-03-17T09:54:46;94502.09;;;18.65;40.68
6024;BME280;3040;42.654;23.296;2024-03-17T09:57:16;94492.47;;;18.61;38.60
6024;BME280;3040;42.654;23.296;2024-03-17T09:59:50;94477.00;;;18.51;37.03
6024;BME280;3040;42.654;23.296;2024-03-17T10:02:17;94481.09;;;18.09;37.20
6024;BME280;3040;42.654;23.296;2024-03-17T10:04:44;94507.91;;;17.88;38.65
6024;BME280;3040;42.654;23.296;2024-03-17T10:07:12;94498.16;;;16.71;39.26
6024;BME280;3040;42.654;23.296;2024-03-17T10:09:40;94505.44;;;16.70;40.50
6024;BME280;3040;42.654;23.296;2024-03-17T10:12:25;94508.47;;;16.35;40.25
6024;BME280;3040;42.654;23.296;2024-03-17T10:14:58;94506.63;;;16.73;39.73
6024;BME280;3040;42.654;23.296;2024-03-17T10:17:32;94506.75;;;16.87;40.99
6024;BME280;3040;42.654;23.296;2024-03-17T10:20:15;94399.78;;;16.55;40.80
6024;BME280;3040;42.654;23.296;2024-03-17T10:23:04;94502.66;;;17.55;40.73
6024;BME280;3040;42.654;23.296;2024-03-17T10:25:32;94501.66;;;17.73;39.83
6024;BME280;3040;42.654;23.296;2024-03-17T10:28:00;94512.94;;;17.93;43.48
6024;BME280;3040;42.654;23.296;2024-03-17T10:30:27;94507.69;;;18.14;38.82
6024;BME280;3040;42.654;23.296;2024-03-17T10:32:57;94501.59;;;18.39;42.15
6024;BME280;3040;42.654;23.296;2024-03-17T10:35:29;94497.84;;;18.61;39.45
6024;BME280;3040;42.654;23.296;2024-03-17T10:37:57;94504.78;;;18.62;41.89
6024;BME280;3040;42.654;23.296;2024-03-17T10:40:26;94504.78;;;18.62;40.96
6024;BME280;3040;42.654;23.296;2024-03-17T10:42:55;94467.75;;;18.38;40.89
6024;BME280;3040;42.654;23.296;2024-03-17T10:45:22;94505.97;;;18.72;39.67
6024;BME280;3040;42.654;23.296;2024-03-17T10:47:51;94504.06;;;18.79;39.01
6024;BME280;3040;42.654;23.296;2024-03-17T10:50:19;94496.69;;;18.69;36.65
6024;BME280;3040;42.654;23.296;2024-03-17T10:52:48;94467.75;;;18.38;41.27
6024;BME280;3040;42.654;23.296;2024-03-17T10:55:21;94492.47;;;18.61;34.74
6024;BME280;3040;42.654;23.296;2024-03-17T10:57:50;94500.56;;;18.68;36.55
6024;BME280;3040;42.654;23.296;2024-03-17T11:00:19;94501.31;;;18.65;36.20
6024;BME280;3040;42.654;23.296;2024-03-17T11:02:48;94497.41;;;18.52;34.98
6024;BME280;3040;42.654;23.296;2024-03-17T11:05:18;94496.94;;;18.28;34.35
6024;BME280;3040;42.654;23.296;2024-03-17T11:07:47;94490.88;;;18.53;36.45
6024;BME280;3040;42.654;23.296;2024-03-17T11:10:16;94478.63;;;18.73;37.62
6024;BME280;3040;42.654;23.296;2024-03-17T11:12:46;94489.38;;;18.59;37.02
6024;BME280;3040;42.654;23.296;2024-03-17T11:15:40;94490.50;;;17.68;38.13
6024;BME280;3040;42.654;23.296;2024-03-17T11:18:31;94482.03;;;17.66;39.09
6024;BME280;3040;42.654;23.296;2024-03-17T11:21:01;94462.44;;;17.14;41.62
6024;BME280;3040;42.654;23.296;2024-03-17T11:23:33;94485.22;;;17.27;43.04
6024;BME280;3040;42.654;23.296;2024-03-17T11:26:03;94447.94;;;17.22;40.76
6024;BME280;3040;42.654;23.296;2024-03-17T11:28:50;94479.81;;;17.82;41.22
6024;BME280;3040;42.654;23.296;2024-03-17T11:31:35;94464.25;;;17.54;40.36
6024;BME280;3040;42.654;23.296;2024-03-17T11:34:04;94469.50;;;17.36;41.01
6024;BME280;3040;42.654;23.296;2024-03-17T11:36:35;94470.94;;;17.71;39.21
6024;BME280;3040;42.654;23.296;2024-03-17T11:39:03;94450.75;;;18.12;38.30
6024;BME280;3040;42.654;23.296;2024-03-17T11:41:36;94459.75;;;18.55;37.65
6024;BME280;3040;42.654;23.296;2024-03-17T11:44:16;94467.88;;;17.76;38.78
6024;BME280;3040;42.654;23.296;2024-03-17T11:46:52;94318.53;;;16.62;37.73
6024;BME280;3040;42.654;23.296;2024-03-17T11:49:20;94460.22;;;17.85;36.20
6024;BME280;3040;42.654;23.296;2024-03-17T11:51:48;94443.03;;;17.38;37.62
6024;BME280;3040;42.654;23.296;2024-03-17T11:54:15;94419.97;;;18.06;35.70
6024;BME280;3040;42.654;23.296;2024-03-17T11:56:47;94434.75;;;18.83;34.50
6024;BME280;3040;42.654;23.296;2024-03-17T11:59:13;94386.66;;;18.92;34.46
6024;BME280;3040;42.654;23.296;2024-03-17T12:01:43;94450.91;;;19.47;39.94
6024;BME280;3040;42.654;23.296;2024-03-17T12:04:11;94442.06;;;19.57;33.06
6024;BME280;3040;42.654;23.296;2024-03-17T12:06:39;94443.88;;;18.25;35.67
6024;BME280;3040;42.654;23.296;2024-03-17T12:09:21;94341.56;;;18.25;39.93
6024;BME280;3040;42.654;23.296;2024-03-17T12:11:47;94441.28;;;19.53;39.92
6024;BME280;3040;42.654;23.296;2024-03-17T12:14:19;94446.19;;;20.01;33.46
6024;BME280;3040;42.654;23.296;2024-03-17T12:16:51;94395.88;;;18.84;34.83
6024;BME280;3040;42.654;23.296;2024-03-17T12:19:20;94416.22;;;18.53;38.16
6024;BME280;3040;42.654;23.296;2024-03-17T12:21:49;94448.75;;;17.99;41.50
6024;BME280;3040;42.654;23.296;2024-03-17T12:24:18;94443.09;;;18.28;44.80
6024;BME280;3040;42.654;23.296;2024-03-17T12:26:44;94443.22;;;18.67;42.23
6024;BME280;3040;42.654;23.296;2024-03-17T12:29:26;94430.50;;;18.61;43.64
6024;BME280;3040;42.654;23.296;2024-03-17T12:31:54;94411.56;;;18.25;41.57
6024;BME280;3040;42.654;23.296;2024-03-17T12:34:25;94441.16;;;18.22;44.73
6024;BME280;3040;42.654;23.296;2024-03-17T12:36:52;94385.28;;;17.83;45.90
6024;BME280;3040;42.654;23.296;2024-03-17T12:39:20;94441.16;;;18.18;44.10
6024;BME280;3040;42.654;23.296;2024-03-17T12:42:01;94412.47;;;17.06;50.80
6024;BME280;3040;42.654;23.296;2024-03-17T12:44:28;94425.03;;;17.49;48.96
6024;BME280;3040;42.654;23.296;2024-03-17T12:46:55;94435.84;;;17.57;49.61
6024;BME280;3040;42.654;23.296;2024-03-17T12:49:24;94427.88;;;17.71;50.61
6024;BME280;3040;42.654;23.296;2024-03-17T12:51:51;94432.94;;;17.83;50.93
6024;BME280;3040;42.654;23.296;2024-03-17T12:54:20;94369.72;;;17.41;52.92
6024;BME280;3040;42.654;23.296;2024-03-17T12:56:46;94426.38;;;17.77;47.78
6024;BME280;3040;42.654;23.296;2024-03-17T12:59:38;94431.38;;;15.95;49.99
6024;BME280;3040;42.654;23.296;2024-03-17T13:02:22;94428.16;;;15.82;50.36
6024;BME280;3040;42.654;23.296;2024-03-17T13:05:17;94434.94;;;16.43;54.18
6024;BME280;3040;42.654;23.296;2024-03-17T13:07:44;94345.16;;;16.37;52.33
6024;BME280;3040;42.654;23.296;2024-03-17T13:10:13;94423.19;;;16.99;55.80
6024;BME280;3040;42.654;23.296;2024-03-17T13:12:40;94424.13;;;17.24;57.29
6024;BME280;3040;42.654;23.296;2024-03-17T13:15:09;94422.41;;;16.98;52.71
6024;BME280;3040;42.654;23.296;2024-03-17T13:17:36;94429.28;;;16.96;48.79
6024;BME280;3040;42.654;23.296;2024-03-17T13:20:04;94431.69;;;16.60;48.31
6024;BME280;3040;42.654;23.296;2024-03-17T13:22:35;94398.84;;;16.37;52.05